Time;durP1;ratioP1;P1;durP2;ratioP2;P2;SDS_P1;SDS_P2;PMS_P1;PMS_P2;Temp;Humidity;BMP_temperature;BMP_pressure;BME280_temperature;BME280_humidity;BME280_pressure;Samples;Min_cycle;Max_cycle;Signal;HPM_P1;HPM_P2
2022/03/07 00:02:19;;;;;;;18.52;5.82;;;;;;;;;;6128736;23;20002;-92
2022/03/07 00:04:45;;;;;;;16.40;6.22;;;;;;;;;;6126950;23;20391;-90
2022/03/07 00:07:12;;;;;;;20.30;5.90;;;;;;;;;;6128916;23;20022;-92
2022/03/07 00:09:38;;;;;;;13.45;4.32;;;;;;;;;;6127900;23;20002;-89
2022/03/07 00:12:04;;;;;;;18.10;5.28;;;;;;;;;;6128631;23;20017;-92
2022/03/07 00:14:31;;;;;;;12.77;4.15;;;;;;;;;;6126763;23;20002;-92
2022/03/07 00:16:58;;;;;;;15.68;4.47;;;;;;;;;;6127188;23;20002;-92
2022/03/07 00:19:24;;;;;;;12.65;5.32;;;;;;;;;;6128455;23;20002;-91
2022/03/07 00:21:50;;;;;;;20.38;4.53;;;;;;;;;;6127319;23;20009;-90
2022/03/07 00:24:16;;;;;;;17.08;4.57;;;;;;;;;;6127220;23;20009;-90
2022/03/07 00:26:43;;;;;;;10.40;4.13;;;;;;;;;;6126994;23;20006;-89
2022/03/07 00:29:09;;;;;;;9.45;3.10;;;;;;;;;;6126481;23;20452;-88
2022/03/07 00:31:35;;;;;;;14.15;4.32;;;;;;;;;;6127096;23;20006;-90
2022/03/07 00:34:01;;;;;;;9.35;3.35;;;;;;;;;;6127529;23;20017;-89
2022/03/07 00:36:28;;;;;;;16.10;4.57;;;;;;;;;;6127188;23;20002;-90
2022/03/07 00:38:54;;;;;;;13.48;4.05;;;;;;;;;;6126752;23;20362;-89
2022/03/07 00:41:23;;;;;;;33.22;22.80;;;;;;;;;;6127226;23;20085;-91
2022/03/07 00:43:49;;;;;;;16.80;10.50;;;;;;;;;;6127136;23;20006;-89
2022/03/07 00:46:16;;;;;;;13.93;8.45;;;;;;;;;;6127126;23;20006;-89
2022/03/07 00:48:42;;;;;;;11.75;5.13;;;;;;;;;;6102374;23;20006;-89
2022/03/07 00:51:08;;;;;;;5.85;3.00;;;;;;;;;;6127217;23;20028;-88
2022/03/07 00:53:34;;;;;;;10.80;3.55;;;;;;;;;;6127690;23;20006;-89
2022/03/07 00:56:01;;;;;;;11.07;2.65;;;;;;;;;;6126835;23;20009;-89
2022/03/07 00:58:27;;;;;;;3.90;1.45;;;;;;;;;;6126527;23;20005;-93
2022/03/07 01:00:53;;;;;;;5.03;1.98;;;;;;;;;;6126979;23;20002;-90
2022/03/07 01:03:19;;;;;;;6.28;2.40;;;;;;;;;;6127234;23;20010;-90
2022/03/07 01:05:46;;;;;;;10.38;3.13;;;;;;;;;;6126391;23;20006;-90
2022/03/07 01:08:12;;;;;;;19.83;5.25;;;;;;;;;;6125351;23;20006;-90
2022/03/07 01:10:39;;;;;;;24.45;8.13;;;;;;;;;;6125203;23;20040;-89
2022/03/07 01:13:06;;;;;;;20.60;8.75;;;;;;;;;;6124544;23;20088;-90
2022/03/07 01:15:32;;;;;;;39.92;15.70;;;;;;;;;;6125803;23;20089;-90
2022/03/07 01:17:59;;;;;;;44.53;17.50;;;;;;;;;;6125634;23;20006;-92
2022/03/07 01:20:26;;;;;;;59.58;23.90;;;;;;;;;;6124977;23;20012;-90
2022/03/07 01:22:53;;;;;;;61.97;25.60;;;;;;;;;;6125823;23;20032;-90
2022/03/07 01:25:19;;;;;;;63.33;25.98;;;;;;;;;;6126277;23;20006;-90
2022/03/07 01:27:45;;;;;;;67.15;27.33;;;;;;;;;;6126490;23;20002;-90
2022/03/07 01:30:12;;;;;;;61.10;26.02;;;;;;;;;;6126059;23;20049;-90
2022/03/07 01:32:38;;;;;;;59.83;22.85;;;;;;;;;;6126337;23;20002;-89
2022/03/07 01:35:05;;;;;;;67.53;26.15;;;;;;;;;;6126443;23;20010;-90
2022/03/07 01:37:31;;;;;;;70.38;25.95;;;;;;;;;;6127649;23;20432;-89
2022/03/07 01:39:58;;;;;;;67.25;26.70;;;;;;;;;;6126362;23;20010;-87
2022/03/07 01:42:24;;;;;;;56.08;20.70;;;;;;;;;;6125620;23;20002;-90
2022/03/07 01:44:50;;;;;;;41.88;18.42;;;;;;;;;;6126782;23;20009;-90
2022/03/07 01:47:17;;;;;;;42.58;16.40;;;;;;;;;;6125918;23;20061;-90
2022/03/07 01:49:43;;;;;;;34.15;14.65;;;;;;;;;;6126029;23;20002;-89
2022/03/07 01:52:10;;;;;;;26.23;9.82;;;;;;;;;;6123131;23;20024;-90
2022/03/07 01:54:36;;;;;;;18.80;8.00;;;;;;;;;;6124885;23;20010;-89
2022/03/07 01:57:03;;;;;;;14.27;6.70;;;;;;;;;;6125815;23;20016;-89
2022/03/07 01:59:30;;;;;;;14.98;6.68;;;;;;;;;;6126013;23;20002;-89
2022/03/07 02:01:58;;;;;;;15.50;6.03;;;;;;;;;;6125366;23;20010;-89
2022/03/07 02:04:24;;;;;;;15.07;5.88;;;;;;;;;;6127084;23;20002;-90
2022/03/07 02:06:51;;;;;;;13.02;6.00;;;;;;;;;;6125158;23;20789;-90
2022/03/07 02:09:17;;;;;;;14.50;5.93;;;;;;;;;;6126281;23;20085;-89
2022/03/07 02:11:44;;;;;;;17.75;6.10;;;;;;;;;;6124942;23;20014;-90
2022/03/07 02:14:20;;;;;;;12.82;5.90;;;;;;;;;;6125459;23;20001;-89
2022/03/07 02:16:47;;;;;;;10.65;5.05;;;;;;;;;;6126688;23;20129;-90
2022/03/07 02:19:14;;;;;;;11.85;6.00;;;;;;;;;;6123479;23;20089;-90
2022/03/07 02:21:50;;;;;;;12.15;5.78;;;;;;;;;;6125513;23;20358;-89
2022/03/07 02:24:18;;;;;;;15.55;6.30;;;;;;;;;;6125820;23;20518;-91
2022/03/07 02:26:55;;;;;;;14.23;6.47;;;;;;;;;;6126781;23;20009;-90
2022/03/07 02:29:21;;;;;;;14.05;7.13;;;;;;;;;;6125316;23;20018;-89
2022/03/07 02:31:54;;;;;;;14.02;7.38;;;;;;;;;;6125044;23;20014;-90
2022/03/07 02:34:20;;;;;;;15.13;5.70;;;;;;;;;;6125721;23;20001;-88
2022/03/07 02:36:46;;;;;;;10.18;4.75;;;;;;;;;;6125381;23;20182;-89
2022/03/07 02:39:13;;;;;;;12.73;4.57;;;;;;;;;;6124979;23;20061;-89
2022/03/07 02:41:40;;;;;;;8.23;4.65;;;;;;;;;;6127254;23;20005;-88
2022/03/07 02:44:14;;;;;;;13.57;4.75;;;;;;;;;;6126534;23;19998;-89
2022/03/07 02:46:40;;;;;;;11.93;6.60;;;;;;;;;;6125586;23;20084;-88
2022/03/07 02:49:07;;;;;;;11.23;6.45;;;;;;;;;;6125736;23;20002;-88
2022/03/07 02:51:34;;;;;;;12.13;6.32;;;;;;;;;;6126043;23;20022;-89
2022/03/07 02:54:00;;;;;;;10.95;6.18;;;;;;;;;;6125668;23;20014;-89
2022/03/07 02:56:27;;;;;;;11.27;6.18;;;;;;;;;;6125800;23;20085;-89
2022/03/07 02:58:53;;;;;;;12.05;5.35;;;;;;;;;;6125542;23;20009;-88
2022/03/07 03:01:19;;;;;;;9.98;5.15;;;;;;;;;;6126090;23;20574;-90
2022/03/07 03:03:46;;;;;;;9.63;4.22;;;;;;;;;;6125734;23;20006;-89
2022/03/07 03:06:12;;;;;;;9.98;4.57;;;;;;;;;;6125933;23;20013;-90
2022/03/07 03:08:38;;;;;;;9.20;4.50;;;;;;;;;;6125062;23;20106;-89
2022/03/07 03:11:05;;;;;;;7.90;4.53;;;;;;;;;;6125892;23;20433;-89
2022/03/07 03:13:31;;;;;;;15.32;7.72;;;;;;;;;;6125390;23;20290;-87
2022/03/07 03:15:57;;;;;;;8.80;3.70;;;;;;;;;;6125514;23;20029;-88
2022/03/07 03:18:23;;;;;;;8.07;4.70;;;;;;;;;;6125618;23;20010;-88
2022/03/07 03:20:51;;;;;;;10.02;4.10;;;;;;;;;;6126770;23;20449;-88
2022/03/07 03:23:18;;;;;;;7.68;4.07;;;;;;;;;;6124857;23;20006;-88
2022/03/07 03:25:44;;;;;;;7.32;3.90;;;;;;;;;;6126932;23;20005;-86
2022/03/07 03:28:11;;;;;;;6.65;4.03;;;;;;;;;;6125765;23;20077;-90
2022/03/07 03:30:37;;;;;;;8.27;4.45;;;;;;;;;;6125165;23;20041;-86
2022/03/07 03:33:04;;;;;;;9.93;5.40;;;;;;;;;;6125688;23;19998;-90
2022/03/07 03:35:31;;;;;;;10.80;5.63;;;;;;;;;;6125377;23;20029;-92
2022/03/07 03:37:57;;;;;;;9.13;5.03;;;;;;;;;;6124892;23;20010;-86
2022/03/07 03:40:23;;;;;;;8.05;4.38;;;;;;;;;;6125235;23;20010;-87
2022/03/07 03:42:50;;;;;;;8.75;4.70;;;;;;;;;;6124851;23;20006;-86
2022/03/07 03:45:16;;;;;;;8.95;3.97;;;;;;;;;;6126195;23;20032;-87
2022/03/07 03:47:43;;;;;;;6.95;3.88;;;;;;;;;;6125115;23;20002;-87
2022/03/07 03:50:11;;;;;;;9.48;4.72;;;;;;;;;;6125090;23;20014;-87
2022/03/07 03:52:37;;;;;;;10.70;5.75;;;;;;;;;;6124429;23;20014;-88
2022/03/07 03:55:07;;;;;;;10.90;5.72;;;;;;;;;;6124987;23;20006;-88
2022/03/07 03:57:33;;;;;;;8.82;4.50;;;;;;;;;;6124483;23;20065;-87
2022/03/07 04:00:00;;;;;;;8.10;4.72;;;;;;;;;;6123769;23;20010;-89
2022/03/07 04:02:26;;;;;;;10.88;5.25;;;;;;;;;;6124956;23;20028;-89
2022/03/07 04:04:52;;;;;;;11.80;6.18;;;;;;;;;;6125192;23;20006;-88
2022/03/07 04:07:18;;;;;;;12.27;6.38;;;;;;;;;;6125336;23;20009;-89
2022/03/07 04:09:45;;;;;;;14.30;7.43;;;;;;;;;;6126376;23;20002;-92
2022/03/07 04:12:11;;;;;;;18.85;9.32;;;;;;;;;;6125695;23;20006;-91
2022/03/07 04:14:37;;;;;;;12.95;8.20;;;;;;;;;;6125130;23;20325;-92
2022/03/07 04:17:04;;;;;;;17.45;8.40;;;;;;;;;;6125116;23;20057;-91
2022/03/07 04:19:30;;;;;;;16.25;8.10;;;;;;;;;;6125169;23;20006;-89
2022/03/07 04:21:56;;;;;;;27.42;12.57;;;;;;;;;;6126256;23;20030;-92
2022/03/07 04:24:23;;;;;;;26.50;12.50;;;;;;;;;;6125689;23;19998;-90
2022/03/07 04:26:49;;;;;;;25.00;12.45;;;;;;;;;;6126458;23;19998;-89
2022/03/07 04:29:15;;;;;;;33.10;15.65;;;;;;;;;;6125440;23;20041;-92
2022/03/07 04:31:43;;;;;;;35.08;16.45;;;;;;;;;;6125221;23;20010;-91
2022/03/07 04:34:12;;;;;;;24.13;12.48;;;;;;;;;;6125949;23;20041;-92
2022/03/07 04:36:39;;;;;;;21.75;10.90;;;;;;;;;;6126999;23;20009;-92
2022/03/07 04:39:06;;;;;;;19.92;9.02;;;;;;;;;;6126696;23;20006;-91
2022/03/07 04:41:33;;;;;;;18.40;8.80;;;;;;;;;;6126932;23;20002;-92
2022/03/07 04:44:00;;;;;;;17.42;7.50;;;;;;;;;;6127000;23;20010;-91
2022/03/07 04:46:27;;;;;;;12.10;6.57;;;;;;;;;;6128562;23;20009;-93
2022/03/07 04:48:53;;;;;;;13.00;6.40;;;;;;;;;;6127570;23;20009;-89
2022/03/07 04:51:19;;;;;;;11.65;5.88;;;;;;;;;;6128192;23;20014;-89
2022/03/07 04:53:46;;;;;;;9.23;5.22;;;;;;;;;;6126367;23;20042;-91
2022/03/07 04:56:12;;;;;;;10.45;5.15;;;;;;;;;;6127617;23;20002;-89
2022/03/07 04:58:38;;;;;;;5.75;2.80;;;;;;;;;;6127407;23;20299;-90
2022/03/07 05:01:05;;;;;;;3.75;1.42;;;;;;;;;;6127199;23;20006;-93
2022/03/07 05:03:32;;;;;;;3.95;1.02;;;;;;;;;;6127565;23;20002;-91
2022/03/07 05:05:58;;;;;;;1.45;0.38;;;;;;;;;;6128532;23;20006;-90
2022/03/07 05:08:24;;;;;;;2.40;0.70;;;;;;;;;;6126755;23;20006;-90
2022/03/07 05:10:51;;;;;;;1.30;0.50;;;;;;;;;;6126863;23;20081;-90
2022/03/07 05:13:17;;;;;;;2.38;0.80;;;;;;;;;;6126682;23;20178;-89
2022/03/07 05:15:44;;;;;;;3.28;0.73;;;;;;;;;;6126929;23;20033;-89
2022/03/07 05:18:10;;;;;;;5.05;1.40;;;;;;;;;;6126736;23;20006;-92
2022/03/07 05:20:37;;;;;;;4.32;1.20;;;;;;;;;;6126631;23;20030;-89
2022/03/07 05:23:03;;;;;;;4.20;1.17;;;;;;;;;;6128901;23;20044;-92
2022/03/07 05:25:29;;;;;;;6.47;2.10;;;;;;;;;;6126944;23;20006;-90
2022/03/07 05:27:55;;;;;;;6.85;2.13;;;;;;;;;;6127076;23;20002;-92
2022/03/07 05:30:23;;;;;;;5.93;1.40;;;;;;;;;;6126146;23;20101;-91
2022/03/07 05:32:51;;;;;;;3.90;1.08;;;;;;;;;;6126801;23;20005;-91
2022/03/07 05:35:18;;;;;;;4.40;1.10;;;;;;;;;;6126834;23;20014;-91
2022/03/07 05:37:45;;;;;;;4.95;1.30;;;;;;;;;;6102155;23;20010;-91
2022/03/07 05:40:12;;;;;;;4.43;1.45;;;;;;;;;;6128034;23;19998;-89
2022/03/07 05:42:38;;;;;;;6.97;1.40;;;;;;;;;;6126251;23;20010;-89
2022/03/07 05:45:06;;;;;;;6.20;2.17;;;;;;;;;;6125934;23;20009;-89
2022/03/07 05:47:33;;;;;;;2.70;1.23;;;;;;;;;;6126592;23;20013;-90
2022/03/07 05:49:59;;;;;;;3.85;1.42;;;;;;;;;;6125513;23;20002;-91
2022/03/07 05:52:25;;;;;;;4.80;1.83;;;;;;;;;;6125846;23;20501;-89
2022/03/07 05:54:52;;;;;;;10.00;1.98;;;;;;;;;;6127634;23;20309;-90
2022/03/07 05:57:18;;;;;;;13.63;3.90;;;;;;;;;;6126298;23;20029;-90
2022/03/07 05:59:45;;;;;;;12.57;3.25;;;;;;;;;;6126847;23;20002;-89
2022/03/07 06:02:11;;;;;;;13.95;5.30;;;;;;;;;;6126543;23;20005;-89
2022/03/07 06:04:37;;;;;;;16.75;6.13;;;;;;;;;;6128147;23;20414;-91
2022/03/07 06:07:03;;;;;;;17.42;6.10;;;;;;;;;;6126325;23;20080;-89
2022/03/07 06:09:30;;;;;;;15.82;6.47;;;;;;;;;;6102099;23;20037;-90
2022/03/07 06:11:56;;;;;;;14.25;6.15;;;;;;;;;;6126643;23;20337;-89
2022/03/07 06:14:22;;;;;;;14.15;7.25;;;;;;;;;;6126406;23;20006;-90
2022/03/07 06:16:52;;;;;;;15.38;6.78;;;;;;;;;;6126480;23;20002;-90
2022/03/07 06:19:18;;;;;;;10.02;5.28;;;;;;;;;;6126846;23;20009;-91
2022/03/07 06:21:44;;;;;;;10.88;3.90;;;;;;;;;;6126972;23;20010;-91
2022/03/07 06:24:11;;;;;;;8.27;3.83;;;;;;;;;;6126949;23;20065;-91
2022/03/07 06:26:37;;;;;;;7.85;2.97;;;;;;;;;;6126471;23;20002;-92
2022/03/07 06:29:05;;;;;;;6.35;2.65;;;;;;;;;;6126009;23;20045;-89
2022/03/07 06:31:32;;;;;;;11.30;2.40;;;;;;;;;;6101927;23;20014;-90
2022/03/07 06:33:58;;;;;;;6.78;2.20;;;;;;;;;;6100854;23;20002;-92
2022/03/07 06:36:24;;;;;;;7.93;3.90;;;;;;;;;;6102154;23;19998;-90
2022/03/07 06:38:50;;;;;;;15.52;5.63;;;;;;;;;;6128011;23;20006;-90
2022/03/07 06:41:25;;;;;;;13.52;6.32;;;;;;;;;;6102679;23;20013;-90
2022/03/07 06:43:51;;;;;;;9.45;5.10;;;;;;;;;;6102110;23;20077;-89
2022/03/07 06:46:17;;;;;;;14.55;5.05;;;;;;;;;;6102507;23;20081;-90
2022/03/07 06:48:44;;;;;;;13.90;6.03;;;;;;;;;;6101915;23;20009;-91
2022/03/07 06:51:10;;;;;;;14.82;6.30;;;;;;;;;;6101747;23;20104;-90
2022/03/07 06:53:55;;;;;;;14.98;7.45;;;;;;;;;;6102805;23;20013;-91
2022/03/07 06:56:21;;;;;;;16.50;7.40;;;;;;;;;;6127732;23;20013;-88
2022/03/07 06:58:47;;;;;;;13.25;5.78;;;;;;;;;;6127771;23;20069;-91
2022/03/07 07:01:14;;;;;;;15.55;6.07;;;;;;;;;;6101848;23;20021;-91
2022/03/07 07:03:59;;;;;;;9.38;3.50;;;;;;;;;;6101701;23;20096;-89
2022/03/07 07:06:25;;;;;;;12.13;4.50;;;;;;;;;;6101933;23;20002;-89
2022/03/07 07:08:51;;;;;;;11.55;5.30;;;;;;;;;;6100951;23;20378;-91
2022/03/07 07:14:37;;;;;;;6.45;3.30;;;;;;;;;;6126416;23;20444;-89
2022/03/07 07:17:04;;;;;;;6.65;3.00;;;;;;;;;;6100781;23;20140;-89
2022/03/07 07:19:30;;;;;;;7.25;3.47;;;;;;;;;;6127266;23;20006;-88
2022/03/07 07:25:24;;;;;;;6.88;3.50;;;;;;;;;;6127906;23;20012;-88
2022/03/07 07:27:50;;;;;;;6.18;2.72;;;;;;;;;;6101216;23;20038;-90
2022/03/07 07:30:17;;;;;;;5.30;2.22;;;;;;;;;;6115700;23;20022;-91
2022/03/07 07:32:43;;;;;;;7.32;3.95;;;;;;;;;;6126523;23;20089;-87
2022/03/07 07:35:10;;;;;;;7.20;2.92;;;;;;;;;;6127737;23;20417;-91
2022/03/07 07:37:36;;;;;;;9.48;3.53;;;;;;;;;;6126649;23;20002;-91
2022/03/07 07:40:05;;;;;;;9.80;3.80;;;;;;;;;;6126872;23;20137;-92
2022/03/07 07:45:31;;;;;;;9.15;2.60;;;;;;;;;;6127348;23;20290;-90
2022/03/07 07:47:59;;;;;;;7.75;3.55;;;;;;;;;;6126914;23;20006;-90
2022/03/07 07:50:26;;;;;;;6.75;3.22;;;;;;;;;;6125841;23;20017;-89
2022/03/07 07:56:01;;;;;;;6.38;2.58;;;;;;;;;;6128230;23;20021;-93
2022/03/07 07:58:28;;;;;;;7.25;1.90;;;;;;;;;;6127363;23;20002;-91
2022/03/07 08:00:54;;;;;;;5.30;2.30;;;;;;;;;;6128518;23;20089;-93
2022/03/07 08:03:20;;;;;;;4.97;2.15;;;;;;;;;;6127243;23;20069;-92
2022/03/07 08:05:48;;;;;;;5.90;2.28;;;;;;;;;;6126502;23;20002;-93
2022/03/07 08:08:21;;;;;;;11.10;2.38;;;;;;;;;;6125395;23;20013;-92
2022/03/07 08:10:47;;;;;;;6.10;1.73;;;;;;;;;;6126981;23;20013;-90
2022/03/07 08:13:13;;;;;;;5.88;2.13;;;;;;;;;;6127767;23;20006;-90
2022/03/07 08:15:40;;;;;;;4.75;2.42;;;;;;;;;;6127541;23;20018;-89
2022/03/07 08:18:06;;;;;;;4.63;2.08;;;;;;;;;;6128241;23;20002;-92
2022/03/07 08:20:33;;;;;;;5.28;2.58;;;;;;;;;;6127001;23;20429;-90
2022/03/07 08:22:59;;;;;;;3.90;2.08;;;;;;;;;;6128346;23;20002;-91
2022/03/07 08:25:26;;;;;;;5.00;2.67;;;;;;;;;;6127352;23;20037;-89
2022/03/07 08:27:52;;;;;;;4.38;2.30;;;;;;;;;;6127912;23;20002;-90
2022/03/07 08:30:19;;;;;;;8.18;2.90;;;;;;;;;;6128645;23;20014;-89
2022/03/07 08:32:46;;;;;;;7.30;3.20;;;;;;;;;;6102972;23;20050;-89
2022/03/07 08:35:13;;;;;;;14.02;3.05;;;;;;;;;;6102911;23;20006;-93
2022/03/07 08:37:39;;;;;;;4.50;2.63;;;;;;;;;;6080278;23;20013;-92
2022/03/07 08:40:07;;;;;;;5.07;3.08;;;;;;;;;;6104588;23;20037;-87
2022/03/07 08:42:42;;;;;;;9.88;3.42;;;;;;;;;;6104392;23;20006;-93
2022/03/07 08:45:09;;;;;;;6.55;3.78;;;;;;;;;;6104213;23;20005;-89
2022/03/07 08:47:40;;;;;;;8.30;3.70;;;;;;;;;;6129733;23;20002;-88
2022/03/07 08:50:08;;;;;;;6.90;3.60;;;;;;;;;;6102955;23;20013;-91
2022/03/07 08:52:35;;;;;;;4.32;2.78;;;;;;;;;;6103245;23;20010;-91
2022/03/07 08:55:01;;;;;;;7.53;3.53;;;;;;;;;;6104172;23;20013;-91
2022/03/07 08:57:28;;;;;;;5.35;4.03;;;;;;;;;;6103535;23;20092;-90
2022/03/07 08:59:54;;;;;;;6.30;4.20;;;;;;;;;;6102608;23;20002;-91
2022/03/07 09:02:20;;;;;;;6.82;4.43;;;;;;;;;;6103225;23;20014;-89
2022/03/07 09:04:47;;;;;;;4.75;3.67;;;;;;;;;;6101479;23;20006;-91
2022/03/07 09:07:13;;;;;;;8.50;4.15;;;;;;;;;;6103159;23;20057;-89
2022/03/07 09:09:40;;;;;;;5.57;3.63;;;;;;;;;;6103803;23;20001;-92
2022/03/07 09:12:09;;;;;;;7.75;3.78;;;;;;;;;;6103022;23;20381;-92
2022/03/07 09:14:35;;;;;;;7.25;4.50;;;;;;;;;;6101881;23;20014;-90
2022/03/07 09:17:02;;;;;;;7.72;4.95;;;;;;;;;;6103086;23;20006;-92
2022/03/07 09:19:29;;;;;;;7.40;5.47;;;;;;;;;;6127650;23;20009;-90
2022/03/07 09:21:55;;;;;;;7.82;5.28;;;;;;;;;;6101868;23;20002;-90
2022/03/07 09:24:23;;;;;;;8.05;5.57;;;;;;;;;;6102497;23;20437;-92
2022/03/07 09:26:49;;;;;;;10.90;7.82;;;;;;;;;;6101532;23;20009;-89
2022/03/07 09:29:16;;;;;;;11.70;7.55;;;;;;;;;;6102327;23;20029;-88
2022/03/07 09:31:42;;;;;;;12.20;6.43;;;;;;;;;;6101840;23;20009;-88
2022/03/07 09:34:10;;;;;;;10.65;6.85;;;;;;;;;;6102489;23;20006;-91
2022/03/07 09:36:36;;;;;;;12.05;7.50;;;;;;;;;;6128388;23;19994;-90
2022/03/07 09:39:03;;;;;;;10.98;8.18;;;;;;;;;;6102566;23;20006;-90
2022/03/07 09:41:30;;;;;;;9.40;7.30;;;;;;;;;;6102003;23;20010;-90
2022/03/07 09:43:56;;;;;;;10.95;8.52;;;;;;;;;;6101366;23;20307;-90
2022/03/07 09:46:22;;;;;;;10.55;8.05;;;;;;;;;;6102405;23;20026;-89
2022/03/07 09:48:49;;;;;;;8.77;6.63;;;;;;;;;;6127982;23;19998;-94
2022/03/07 09:51:15;;;;;;;9.80;6.80;;;;;;;;;;6101334;23;20014;-92
2022/03/07 09:53:42;;;;;;;10.57;7.20;;;;;;;;;;6101822;23;20299;-90
2022/03/07 09:56:09;;;;;;;12.18;7.30;;;;;;;;;;6102799;23;20002;-92
2022/03/07 09:58:35;;;;;;;9.48;7.03;;;;;;;;;;6101774;23;20002;-91
2022/03/07 10:01:12;;;;;;;10.90;7.45;;;;;;;;;;6101365;23;20006;-91
2022/03/07 10:03:39;;;;;;;10.65;6.50;;;;;;;;;;6078750;23;20006;-89
2022/03/07 10:06:14;;;;;;;8.43;6.95;;;;;;;;;;6127690;23;20414;-89
2022/03/07 10:08:51;;;;;;;9.13;6.78;;;;;;;;;;6102148;23;20006;-92
2022/03/07 10:11:17;;;;;;;9.95;6.93;;;;;;;;;;6102595;23;20413;-89
2022/03/07 10:13:51;;;;;;;10.38;7.53;;;;;;;;;;6102307;23;20013;-90
2022/03/07 10:16:17;;;;;;;9.70;7.32;;;;;;;;;;6102098;23;20033;-89
2022/03/07 10:18:49;;;;;;;10.35;7.63;;;;;;;;;;6127991;23;20425;-90
2022/03/07 10:21:20;;;;;;;8.85;6.80;;;;;;;;;;6101544;23;20040;-91
2022/03/07 10:23:50;;;;;;;9.48;7.30;;;;;;;;;;6101536;23;20079;-91
2022/03/07 10:26:17;;;;;;;9.13;6.40;;;;;;;;;;6102053;23;20006;-90
2022/03/07 10:28:51;;;;;;;9.45;7.00;;;;;;;;;;6102293;23;20002;-90
2022/03/07 10:31:20;;;;;;;10.00;6.93;;;;;;;;;;6124769;23;20442;-92
2022/03/07 10:33:47;;;;;;;13.20;7.28;;;;;;;;;;6126559;23;20009;-90
2022/03/07 10:36:16;;;;;;;9.95;6.75;;;;;;;;;;6127094;23;20029;-91
2022/03/07 10:38:46;;;;;;;8.73;6.25;;;;;;;;;;6126841;23;20449;-92
2022/03/07 10:41:13;;;;;;;8.85;6.95;;;;;;;;;;6125611;23;20061;-91
2022/03/07 10:43:46;;;;;;;8.50;6.22;;;;;;;;;;6127875;23;19998;-91
2022/03/07 10:46:12;;;;;;;8.60;6.53;;;;;;;;;;6125732;23;20005;-90
2022/03/07 10:48:43;;;;;;;10.63;6.00;;;;;;;;;;6127989;23;20077;-90
2022/03/07 10:51:16;;;;;;;10.98;7.13;;;;;;;;;;6126313;23;20018;-91
2022/03/07 10:53:42;;;;;;;9.18;6.60;;;;;;;;;;6126800;23;20006;-91
2022/03/07 10:56:11;;;;;;;10.75;6.28;;;;;;;;;;6126623;23;20002;-91
2022/03/07 10:58:45;;;;;;;7.95;5.90;;;;;;;;;;6126413;23;20089;-92
2022/03/07 11:01:11;;;;;;;6.45;5.10;;;;;;;;;;6125359;23;20037;-91
2022/03/07 11:03:38;;;;;;;7.78;4.82;;;;;;;;;;6125972;23;20060;-92
2022/03/07 11:06:04;;;;;;;9.52;5.05;;;;;;;;;;6125068;23;20088;-91
2022/03/07 11:08:31;;;;;;;7.18;5.50;;;;;;;;;;6126375;23;20409;-91
2022/03/07 11:10:59;;;;;;;9.15;5.50;;;;;;;;;;6125509;23;20010;-92
2022/03/07 11:13:29;;;;;;;8.57;6.13;;;;;;;;;;6127102;23;20017;-93
2022/03/07 11:15:57;;;;;;;13.25;5.88;;;;;;;;;;6125790;23;20013;-90
2022/03/07 11:18:23;;;;;;;10.05;5.95;;;;;;;;;;6125165;23;20084;-88
2022/03/07 11:20:50;;;;;;;8.73;5.82;;;;;;;;;;6124744;23;20006;-89
2022/03/07 11:23:17;;;;;;;12.35;5.63;;;;;;;;;;6126586;23;20031;-89
2022/03/07 11:25:44;;;;;;;13.70;6.15;;;;;;;;;;6124628;23;20441;-88
2022/03/07 11:28:11;;;;;;;12.90;6.15;;;;;;;;;;6124672;23;20102;-89
2022/03/07 11:30:42;;;;;;;16.20;8.88;;;;;;;;;;6124661;23;20014;-90
2022/03/07 11:33:18;;;;;;;19.25;9.13;;;;;;;;;;6124253;23;20077;-89
2022/03/07 11:35:44;;;;;;;16.63;9.07;;;;;;;;;;6124547;23;20005;-87
2022/03/07 11:38:15;;;;;;;13.02;8.85;;;;;;;;;;6124668;23;20397;-89
2022/03/07 11:40:56;;;;;;;14.15;9.88;;;;;;;;;;6124470;23;20421;-88
2022/03/07 11:43:24;;;;;;;18.48;10.73;;;;;;;;;;6125000;23;20037;-90
2022/03/07 11:45:54;;;;;;;20.05;11.48;;;;;;;;;;6124686;23;20029;-91
2022/03/07 11:48:21;;;;;;;20.20;12.38;;;;;;;;;;6124460;23;20081;-88
2022/03/07 11:50:48;;;;;;;19.35;12.32;;;;;;;;;;6122024;23;20022;-90
2022/03/07 11:53:15;;;;;;;19.27;13.05;;;;;;;;;;6122354;23;20006;-89
2022/03/07 11:55:54;;;;;;;23.15;14.43;;;;;;;;;;6124613;23;20016;-88
2022/03/07 11:58:32;;;;;;;33.22;15.38;;;;;;;;;;6124126;23;20017;-89
2022/03/07 12:01:04;;;;;;;27.08;15.88;;;;;;;;;;6123971;23;20006;-86
2022/03/07 12:03:33;;;;;;;31.40;16.98;;;;;;;;;;6124307;23;20010;-87
2022/03/07 12:06:04;;;;;;;25.85;15.38;;;;;;;;;;6122918;23;20010;-87
2022/03/07 12:08:42;;;;;;;27.73;14.88;;;;;;;;;;6119919;23;20484;-88
2022/03/07 12:11:09;;;;;;;36.83;16.80;;;;;;;;;;6123958;23;20299;-90
2022/03/07 12:13:45;;;;;;;31.95;12.52;;;;;;;;;;6124418;23;20013;-89
2022/03/07 12:16:12;;;;;;;28.15;13.30;;;;;;;;;;6124314;23;20009;-88
2022/03/07 12:18:38;;;;;;;27.73;12.50;;;;;;;;;;6123732;23;20002;-89
2022/03/07 12:21:05;;;;;;;23.02;10.60;;;;;;;;;;6124294;23;20452;-87
2022/03/07 12:23:35;;;;;;;31.30;12.98;;;;;;;;;;6124559;23;20013;-90
2022/03/07 12:26:09;;;;;;;25.75;11.63;;;;;;;;;;6122589;23;20093;-88
2022/03/07 12:28:45;;;;;;;22.98;9.80;;;;;;;;;;6121493;23;20006;-87
2022/03/07 12:31:12;;;;;;;24.52;9.15;;;;;;;;;;6122452;23;20104;-88
2022/03/07 12:33:38;;;;;;;20.88;9.68;;;;;;;;;;6123436;23;20002;-89
2022/03/07 12:36:10;;;;;;;19.73;9.40;;;;;;;;;;6122057;23;20009;-88
2022/03/07 12:38:49;;;;;;;29.77;13.68;;;;;;;;;;6122005;23;20512;-87
2022/03/07 12:41:16;;;;;;;22.98;11.60;;;;;;;;;;6123509;23;20013;-87
2022/03/07 12:43:46;;;;;;;27.38;12.98;;;;;;;;;;6124238;23;20346;-88
2022/03/07 12:46:13;;;;;;;32.22;16.48;;;;;;;;;;6124409;23;20085;-89
2022/03/07 12:48:43;;;;;;;35.10;18.00;;;;;;;;;;6124102;23;20006;-90
2022/03/07 12:51:10;;;;;;;35.92;18.60;;;;;;;;;;6125095;23;20399;-88
2022/03/07 12:53:46;;;;;;;40.85;17.42;;;;;;;;;;6123188;23;20007;-88
2022/03/07 12:56:13;;;;;;;37.63;19.27;;;;;;;;;;6124546;23;20002;-89
2022/03/07 12:58:56;;;;;;;34.63;20.67;;;;;;;;;;6126161;23;20471;-89
2022/03/07 13:01:26;;;;;;;34.78;17.50;;;;;;;;;;6127251;23;20001;-89
2022/03/07 13:03:53;;;;;;;24.80;14.68;;;;;;;;;;6125606;23;20385;-88
2022/03/07 13:06:23;;;;;;;23.67;12.65;;;;;;;;;;6125413;23;20006;-89
2022/03/07 13:08:54;;;;;;;28.33;14.30;;;;;;;;;;6126920;23;20013;-90
2022/03/07 13:11:33;;;;;;;28.15;14.38;;;;;;;;;;6126297;23;20014;-87
2022/03/07 13:14:00;;;;;;;29.00;15.63;;;;;;;;;;6126288;23;20069;-87
2022/03/07 13:16:28;;;;;;;22.50;13.27;;;;;;;;;;6126034;23;20005;-87
2022/03/07 13:19:01;;;;;;;31.20;13.90;;;;;;;;;;6126114;23;20002;-89
2022/03/07 13:21:30;;;;;;;25.75;14.73;;;;;;;;;;6125417;23;20089;-88
2022/03/07 13:23:57;;;;;;;28.45;14.93;;;;;;;;;;6125955;23;20085;-89
2022/03/07 13:26:25;;;;;;;27.98;15.20;;;;;;;;;;6125457;23;20009;-87
2022/03/07 13:29:08;;;;;;;33.47;16.20;;;;;;;;;;6125625;23;20773;-87
2022/03/07 13:32:01;;;;;;;34.40;19.50;;;;;;;;;;6125949;23;20018;-88
2022/03/07 13:34:39;;;;;;;46.30;22.90;;;;;;;;;;6123243;23;20030;-88
2022/03/07 13:37:05;;;;;;;38.33;20.30;;;;;;;;;;6125614;23;20006;-87
2022/03/07 13:39:33;;;;;;;40.65;22.67;;;;;;;;;;6125564;23;20002;-88
2022/03/07 13:41:59;;;;;;;36.63;20.45;;;;;;;;;;6125945;23;20073;-86
2022/03/07 13:44:26;;;;;;;33.88;18.15;;;;;;;;;;6125362;23;20008;-87
2022/03/07 13:46:53;;;;;;;35.03;18.38;;;;;;;;;;6126683;23;19998;-89
2022/03/07 13:49:20;;;;;;;35.95;20.35;;;;;;;;;;6125860;23;20012;-90
2022/03/07 13:51:46;;;;;;;39.55;20.88;;;;;;;;;;6125601;23;20018;-88
2022/03/07 13:54:13;;;;;;;35.95;20.52;;;;;;;;;;6124330;23;20385;-90
2022/03/07 13:56:39;;;;;;;38.00;21.55;;;;;;;;;;6125320;23;20003;-88
2022/03/07 13:59:15;;;;;;;49.13;25.35;;;;;;;;;;6125408;23;20464;-89
2022/03/07 14:01:41;;;;;;;43.40;24.30;;;;;;;;;;6124749;23;20100;-89
2022/03/07 14:04:12;;;;;;;41.40;23.98;;;;;;;;;;6125251;23;20006;-89
2022/03/07 14:06:38;;;;;;;45.78;25.30;;;;;;;;;;6124925;23;20136;-91
2022/03/07 14:09:12;;;;;;;50.35;26.58;;;;;;;;;;6125627;23;20053;-87
2022/03/07 14:11:39;;;;;;;46.50;27.15;;;;;;;;;;6125066;23;20037;-89
2022/03/07 14:14:16;;;;;;;52.33;27.17;;;;;;;;;;6124949;23;20065;-88
2022/03/07 14:16:42;;;;;;;49.22;27.48;;;;;;;;;;6124912;23;20014;-89
2022/03/07 14:19:09;;;;;;;51.15;31.00;;;;;;;;;;6126677;23;20074;-88
2022/03/07 14:21:37;;;;;;;54.72;30.20;;;;;;;;;;6124998;23;20001;-89
2022/03/07 14:24:04;;;;;;;51.65;29.35;;;;;;;;;;6125573;23;20036;-89
2022/03/07 14:26:31;;;;;;;50.80;29.42;;;;;;;;;;6124065;23;20425;-88
2022/03/07 14:29:03;;;;;;;55.38;26.95;;;;;;;;;;6124636;23;20028;-87
2022/03/07 14:31:31;;;;;;;48.38;26.95;;;;;;;;;;6124353;23;20024;-88
2022/03/07 14:33:57;;;;;;;49.75;26.73;;;;;;;;;;6124881;23;20291;-89
2022/03/07 14:36:23;;;;;;;47.17;26.73;;;;;;;;;;6124650;23;20006;-89
2022/03/07 14:38:50;;;;;;;44.65;27.38;;;;;;;;;;6124532;23;20028;-90
2022/03/07 14:41:16;;;;;;;51.58;28.48;;;;;;;;;;6125250;23;20010;-88
2022/03/07 14:43:42;;;;;;;51.17;28.35;;;;;;;;;;6124815;23;20074;-89
2022/03/07 14:46:09;;;;;;;49.45;22.55;;;;;;;;;;6124851;23;20030;-89
2022/03/07 14:48:39;;;;;;;50.63;18.48;;;;;;;;;;6124188;23;20034;-88